New Trenton, Indiana
Current Conditions -  °F | °C
As of 4:15 AM on Wednesday 26 Nov 2014 (Local Time) from KI67 Reporting Station
Overcast Overcast  
Wind Chill: -2°   Ceiling: 1500
Heat Index: -2°   Visibility: 7mi
Dew Point: -3°   Wind: 0mph
Humidity: 93%   Direction: NA
Pressure: 30.14"   Gusts: NA
Location:  39.31°N, 84.9°W
Report Text: KI67 260915Z AUTO 00000KT 7SM BKN015 OVC024 M02/M03 A3014 RMK AO1
Loading
Personal Weather Stations






























Interactive Weather Map New forecast layout! Learn more

10-Day Weather Forecast

Advertisements
Track Severe Weather on mobile